Time;durP1;ratioP1;P1;durP2;ratioP2;P2;SDS_P1;SDS_P2;PMS_P1;PMS_P2;Temp;Humidity;BMP_temperature;BMP_pressure;BME280_temperature;BME280_humidity;BME280_pressure;Samples;Min_cycle;Max_cycle;Signal;HPM_P1;HPM_P2
2020/12/17 00:04:59;;;;;;;;;;;8.10;99.90;;;;;;10047694;29;20144;-90
2020/12/17 00:10:01;;;;;;;18.95;15.45;;;8.30;99.90;;;;;;10046675;29;19924;-91
2020/12/17 00:15:08;;;;;;;18.52;13.98;;;8.30;99.90;;;;;;10046859;29;20133;-91
2020/12/17 00:20:11;;;;;;;20.17;14.27;;;8.20;99.90;;;;;;10046243;29;20065;-92
2020/12/17 00:25:18;;;;;;;19.98;13.68;;;8.30;99.90;;;;;;10046518;29;20140;-91
2020/12/17 00:30:19;;;;;;;22.05;14.45;;;8.30;99.90;;;;;;10045892;29;20061;-90
2020/12/17 00:35:21;;;;;;;15.90;13.27;;;8.30;99.90;;;;;;10045438;29;20068;-91
2020/12/17 00:40:22;;;;;;;16.38;13.60;;;8.20;99.90;;;;;;10050020;29;20399;-91
2020/12/17 00:45:24;;;;;;;16.95;12.73;;;8.30;99.90;;;;;;10007683;29;20141;-91
2020/12/17 00:50:25;;;;;;;18.92;13.25;;;8.20;99.90;;;;;;10018645;29;20054;-91
2020/12/17 00:55:27;;;;;;;16.08;13.10;;;8.30;99.90;;;;;;10009899;29;20072;-91
2020/12/17 01:00:29;;;;;;;17.83;13.02;;;8.30;99.90;;;;;;10006258;29;20065;-91
2020/12/17 01:05:30;;;;;;;16.42;13.68;;;8.40;99.90;;;;;;10006450;29;20068;-91
2020/12/17 01:10:33;;;;;;;20.10;13.60;;;8.30;99.90;;;;;;10020276;29;20053;-91
2020/12/17 01:15:34;;;;;;;23.20;13.95;;;8.30;99.90;;;;;;10044148;29;20069;-91
2020/12/17 01:20:36;;;;;;;19.73;14.13;;;8.30;99.90;;;;;;10059881;29;20514;-91
2020/12/17 01:25:39;;;;;;;16.30;13.23;;;8.20;99.90;;;;;;10029192;29;20066;-91
2020/12/17 01:30:40;;;;;;;12.93;10.98;;;8.20;99.90;;;;;;10043252;29;20136;-91
2020/12/17 01:35:42;;;;;;;17.13;13.52;;;8.40;99.90;;;;;;10044066;29;20466;-91
2020/12/17 01:40:46;;;;;;;13.88;12.02;;;8.30;99.90;;;;;;10069603;29;20061;-92
2020/12/17 01:45:48;;;;;;;15.50;11.98;;;8.40;99.90;;;;;;10029420;29;20113;-92
2020/12/17 01:50:49;;;;;;;18.25;14.23;;;8.40;99.90;;;;;;10013370;29;20058;-92
2020/12/17 01:56:00;;;;;;;18.15;14.15;;;8.40;99.90;;;;;;10014259;29;20502;-92
2020/12/17 02:01:01;;;;;;;18.45;14.55;;;8.30;99.90;;;;;;10028525;29;20096;-91
2020/12/17 02:06:03;;;;;;;;;;;8.20;99.90;;;;;;10028887;29;20520;-91
2020/12/17 02:11:09;;;;;;;17.73;14.00;;;8.30;99.90;;;;;;10043674;29;20030;-92
2020/12/17 02:16:12;;;;;;;20.27;15.25;;;8.30;99.90;;;;;;10026873;29;20101;-92
2020/12/17 02:21:14;;;;;;;15.55;13.80;;;8.20;99.90;;;;;;10017000;29;20060;-91
2020/12/17 02:26:15;;;;;;;14.77;12.25;;;8.30;99.90;;;;;;9997920;29;20066;-91
2020/12/17 02:31:17;;;;;;;17.98;14.25;;;8.20;99.90;;;;;;10012509;29;20153;-92
2020/12/17 02:36:19;;;;;;;17.80;15.30;;;8.20;99.90;;;;;;10012288;29;20498;-92
2020/12/17 02:41:20;;;;;;;16.70;13.18;;;8.20;99.90;;;;;;10012380;29;20058;-92
2020/12/17 02:46:22;;;;;;;22.70;14.70;;;8.20;99.90;;;;;;10013062;29;20058;-92
2020/12/17 02:51:23;;;;;;;;;;;8.30;99.90;;;;;;10048199;29;20493;-91
2020/12/17 02:56:25;;;;;;;15.77;13.18;;;8.40;99.90;;;;;;10065018;29;20295;-91
2020/12/17 03:01:27;;;;;;;19.23;14.20;;;8.40;99.90;;;;;;10034153;29;20069;-91
2020/12/17 03:06:28;;;;;;;19.63;14.95;;;8.40;99.90;;;;;;10049215;29;20417;-91
2020/12/17 03:11:30;;;;;;;13.23;11.88;;;8.30;99.90;;;;;;10011689;29;20065;-91
2020/12/17 03:16:32;;;;;;;14.20;11.55;;;8.50;99.90;;;;;;9996255;29;20146;-91
2020/12/17 03:21:34;;;;;;;15.30;13.18;;;8.60;99.90;;;;;;9996523;29;20072;-91
2020/12/17 03:26:35;;;;;;;14.65;11.73;;;8.50;99.90;;;;;;10010906;29;20140;-90
2020/12/17 03:31:37;;;;;;;14.38;10.77;;;8.50;99.90;;;;;;10063576;29;20066;-91
2020/12/17 03:36:38;;;;;;;12.30;11.00;;;8.60;99.90;;;;;;10033456;29;20168;-90
2020/12/17 03:41:40;;;;;;;14.05;11.15;;;8.70;99.90;;;;;;10048248;29;20061;-91
2020/12/17 03:46:41;;;;;;;15.15;10.93;;;8.70;99.90;;;;;;10033005;29;20106;-91
2020/12/17 03:51:43;;;;;;;17.02;11.68;;;8.60;99.90;;;;;;10062948;29;20614;-92
2020/12/17 03:56:45;;;;;;;16.42;11.65;;;8.60;99.90;;;;;;10062099;29;20145;-91
2020/12/17 04:01:46;;;;;;;16.40;12.48;;;8.70;99.90;;;;;;10028477;29;20562;-92
2020/12/17 04:06:48;;;;;;;14.77;11.05;;;8.60;99.90;;;;;;10046958;29;20068;-92
2020/12/17 04:11:50;;;;;;;21.80;12.70;;;8.70;99.90;;;;;;10049085;29;20096;-90
2020/12/17 04:16:54;;;;;;;15.93;11.15;;;8.80;99.90;;;;;;10046981;29;20058;-91
2020/12/17 04:21:56;;;;;;;18.60;11.75;;;8.80;99.90;;;;;;10046579;29;20524;-91
2020/12/17 04:26:57;;;;;;;13.13;11.80;;;8.90;99.90;;;;;;10042897;29;20066;-92
2020/12/17 04:31:59;;;;;;;19.27;11.93;;;8.80;99.90;;;;;;10023747;29;20081;-91
2020/12/17 04:37:00;;;;;;;14.35;9.88;;;9.00;99.90;;;;;;10008539;29;20061;-92
2020/12/17 04:42:02;;;;;;;20.20;13.27;;;9.00;99.90;;;;;;10007844;29;20093;-91
2020/12/17 04:47:05;;;;;;;13.60;11.00;;;8.90;99.90;;;;;;9993111;29;20064;-91
2020/12/17 04:52:08;;;;;;;13.40;10.82;;;8.90;99.90;;;;;;10007834;29;20061;-92
2020/12/17 04:57:13;;;;;;;15.02;11.88;;;9.10;99.90;;;;;;9996604;29;20058;-92
2020/12/17 05:02:17;;;;;;;24.52;14.93;;;9.00;99.90;;;;;;10044891;29;20474;-92
2020/12/17 05:07:23;;;;;;;21.73;13.57;;;9.00;99.90;;;;;;10045016;29;20132;-91
2020/12/17 05:12:25;;;;;;;19.20;14.98;;;9.00;99.90;;;;;;10035211;23;20077;-94
2020/12/17 05:17:27;;;;;;;19.65;13.30;;;9.10;99.90;;;;;;9992255;29;20565;-94
2020/12/17 05:22:28;;;;;;;15.50;12.18;;;9.00;99.90;;;;;;9992419;29;20157;-94
2020/12/17 05:27:30;;;;;;;18.35;13.07;;;9.10;99.90;;;;;;10032490;29;20054;-94
2020/12/17 05:32:32;;;;;;;18.70;11.75;;;9.10;99.90;;;;;;10030891;29;20417;-94
2020/12/17 05:37:34;;;;;;;17.38;15.52;;;9.00;99.90;;;;;;10030439;29;20072;-94
2020/12/17 05:42:35;;;;;;;17.25;14.60;;;9.10;99.90;;;;;;10043257;29;20057;-94
2020/12/17 05:47:40;;;;;;;21.42;15.27;;;9.20;99.90;;;;;;10027605;29;20085;-94
2020/12/17 05:52:43;;;;;;;20.55;17.45;;;9.10;99.90;;;;;;10014943;29;20064;-94
2020/12/17 05:57:52;;;;;;;17.20;15.38;;;9.10;99.90;;;;;;10036024;29;20474;-95
2020/12/17 06:02:53;;;;;;;17.15;15.27;;;9.10;99.90;;;;;;10052968;29;20145;-94
2020/12/17 06:08:00;;;;;;;24.42;17.30;;;9.10;99.90;;;;;;10036957;29;20140;-96
2020/12/17 06:13:02;;;;;;;22.23;17.15;;;9.00;99.90;;;;;;10051831;29;20062;-94
2020/12/17 06:18:04;;;;;;;21.95;18.48;;;9.10;99.90;;;;;;10051707;29;20121;-96
2020/12/17 06:23:06;;;;;;;;;;;9.10;99.90;;;;;;10051865;29;20100;-95
2020/12/17 06:28:50;;;;;;;16.40;14.68;;;9.10;99.90;;;;;;10036194;29;20015;-96
2020/12/17 06:34:03;;;;;;;22.70;18.67;;;9.00;99.90;;;;;;10052486;29;20057;-95
2020/12/17 06:39:06;;;;;;;17.90;15.90;;;9.00;99.90;;;;;;10028409;29;20057;-95
2020/12/17 06:44:31;;;;;;;18.73;16.08;;;9.00;99.90;;;;;;9998017;29;20605;-94
2020/12/17 06:49:33;;;;;;;17.73;15.63;;;9.00;99.90;;;;;;9989862;29;20058;-95
2020/12/17 06:54:42;;;;;;;16.63;14.82;;;8.90;99.90;;;;;;9989733;29;20058;-95
2020/12/17 07:00:04;;;;;;;20.38;18.25;;;9.00;99.90;;;;;;9990327;29;20149;-94
2020/12/17 07:05:05;;;;;;;20.38;15.77;;;9.00;99.90;;;;;;9988622;29;20092;-95
2020/12/17 07:10:25;;;;;;;20.42;18.20;;;9.00;99.90;;;;;;9973133;29;20133;-94
2020/12/17 07:15:37;;;;;;;19.67;16.92;;;9.00;99.90;;;;;;10033041;29;20064;-95
2020/12/17 07:20:39;;;;;;;19.77;17.17;;;8.90;99.90;;;;;;10064271;29;20149;-95
2020/12/17 07:25:40;;;;;;;19.70;16.83;;;8.90;99.90;;;;;;10019467;29;20069;-94
2020/12/17 07:30:53;;;;;;;20.70;16.98;;;8.90;99.90;;;;;;10033543;29;20573;-94
2020/12/17 07:35:55;;;;;;;23.83;20.38;;;8.90;99.90;;;;;;10026273;29;20140;-94
2020/12/17 07:40:56;;;;;;;19.15;16.73;;;8.90;99.90;;;;;;10011169;29;20062;-94
2020/12/17 07:45:58;;;;;;;24.35;20.30;;;8.90;99.90;;;;;;10010911;29;20074;-94
2020/12/17 07:51:02;;;;;;;21.55;17.60;;;8.90;99.90;;;;;;9994955;29;20053;-94
2020/12/17 07:56:06;;;;;;;20.45;17.58;;;8.90;99.90;;;;;;10023322;29;20149;-94
2020/12/17 08:01:09;;;;;;;18.85;16.83;;;8.70;99.90;;;;;;10034123;29;20058;-94
2020/12/17 08:06:19;;;;;;;22.33;18.73;;;8.80;99.90;;;;;;10048211;29;20145;-94
2020/12/17 08:11:20;;;;;;;23.10;20.50;;;8.80;99.90;;;;;;10047376;29;20060;-93
2020/12/17 08:16:22;;;;;;;27.48;21.80;;;8.80;99.90;;;;;;10046700;29;20083;-94
2020/12/17 08:21:24;;;;;;;;;;;8.80;99.90;;;;;;10007055;29;20514;-93
2020/12/17 08:26:28;;;;;;;22.10;19.05;;;8.80;99.90;;;;;;10013332;29;19930;-94
2020/12/17 08:31:30;;;;;;;21.20;18.05;;;8.80;99.90;;;;;;10022320;29;20425;-93
2020/12/17 08:36:34;;;;;;;22.55;18.13;;;8.80;99.90;;;;;;10046962;29;20081;-93
2020/12/17 08:41:47;;;;;;;22.25;19.52;;;8.80;99.90;;;;;;10031284;29;20061;-93
2020/12/17 08:47:00;;;;;;;19.05;15.00;;;8.90;99.90;;;;;;10046463;29;20067;-93
2020/12/17 08:52:01;;;;;;;21.20;17.65;;;8.90;99.90;;;;;;10045127;29;20071;-94
2020/12/17 08:57:09;;;;;;;17.38;14.48;;;9.00;99.90;;;;;;10014294;29;20066;-94
2020/12/17 09:02:11;;;;;;;15.60;12.43;;;9.00;99.90;;;;;;10008014;29;20502;-93
2020/12/17 09:07:12;;;;;;;15.18;13.07;;;8.90;99.90;;;;;;9992849;29;20062;-93
2020/12/17 09:12:14;;;;;;;21.70;15.13;;;9.00;99.90;;;;;;9992479;29;20149;-92
2020/12/17 09:17:17;;;;;;;16.60;12.73;;;9.00;99.90;;;;;;9992602;29;20076;-93
2020/12/17 09:22:20;;;;;;;14.63;12.93;;;9.00;99.90;;;;;;10023126;29;20077;-93
2020/12/17 09:27:28;;;;;;;16.85;12.23;;;9.00;99.90;;;;;;10043936;29;20084;-92
2020/12/17 09:32:31;;;;;;;15.77;11.95;;;9.10;99.90;;;;;;10008068;29;20527;-93
2020/12/17 09:37:34;;;;;;;17.30;13.05;;;9.10;99.90;;;;;;10043164;29;20096;-93
2020/12/17 09:42:37;;;;;;;14.30;11.85;;;9.10;99.90;;;;;;10044510;29;20109;-93
2020/12/17 09:47:39;;;;;;;14.25;10.02;;;9.10;99.90;;;;;;10044501;29;20057;-93
2020/12/17 09:52:42;;;;;;;14.40;10.88;;;9.10;99.90;;;;;;10059987;29;20061;-93
2020/12/17 09:57:46;;;;;;;13.55;9.93;;;9.10;99.90;;;;;;10044921;29;20088;-94
2020/12/17 10:02:48;;;;;;;12.27;10.77;;;9.10;99.90;;;;;;10014819;29;20061;-93
2020/12/17 10:07:50;;;;;;;;;;;9.10;99.90;;;;;;10045227;29;20053;-94
2020/12/17 10:12:52;;;;;;;14.65;10.70;;;9.20;99.90;;;;;;10043759;29;20353;-93
2020/12/17 10:17:54;;;;;;;11.18;8.15;;;9.20;99.90;;;;;;10028730;29;20081;-94
2020/12/17 10:22:56;;;;;;;13.95;7.20;;;9.10;99.90;;;;;;10043472;29;20049;-93
2020/12/17 10:28:01;;;;;;;10.35;7.50;;;9.30;99.90;;;;;;10020199;29;20156;-94
2020/12/17 10:33:06;;;;;;;17.13;6.32;;;9.30;99.90;;;;;;10020511;29;20533;-93
2020/12/17 10:51:20;;;;;;;9.23;5.63;;;9.30;99.90;;;;;;9949191;29;20058;-93
2020/12/17 10:56:39;;;;;;;8.35;5.72;;;9.40;99.90;;;;;;9974546;29;20055;-93
2020/12/17 11:02:16;;;;;;;10.45;6.82;;;9.30;99.90;;;;;;9964334;29;20063;-93
2020/12/17 11:07:47;;;;;;;14.45;6.95;;;9.20;99.90;;;;;;9949585;29;20054;-93
2020/12/17 11:13:10;;;;;;;11.23;6.65;;;9.30;99.90;;;;;;9859053;30;20134;-93
2020/12/17 11:18:13;;;;;;;12.75;7.75;;;9.30;99.90;;;;;;9877705;30;20063;-94
2020/12/17 11:23:16;;;;;;;11.07;6.22;;;9.40;99.90;;;;;;9897191;30;20070;-96
2020/12/17 11:28:21;;;;;;;11.30;7.15;;;9.40;99.90;;;;;;9946532;29;20058;-96
2020/12/17 18:23:30;;;;;;;7.07;3.22;;;8.10;99.90;;;;;;10093430;29;20053;-92
2020/12/17 18:28:33;;;;;;;12.40;3.28;;;8.20;99.90;;;;;;10067591;29;20101;-92
2020/12/17 18:33:34;;;;;;;12.07;3.60;;;8.10;99.90;;;;;;10067447;29;20065;-92
2020/12/17 18:38:37;;;;;;;10.05;4.20;;;8.00;99.90;;;;;;10051860;29;20092;-91
2020/12/17 18:43:39;;;;;;;9.52;4.97;;;7.70;99.90;;;;;;10067370;29;20063;-91
2020/12/17 18:48:40;;;;;;;8.35;3.95;;;7.60;99.90;;;;;;10066548;29;20493;-91
2020/12/17 18:53:42;;;;;;;10.43;4.47;;;7.60;99.90;;;;;;10051255;29;20410;-92
2020/12/17 18:58:44;;;;;;;;;;;7.40;99.90;;;;;;10052586;29;20124;-91
2020/12/17 19:03:45;;;;;;;8.90;4.40;;;7.20;99.90;;;;;;10055296;29;19924;-91
2020/12/17 19:08:47;;;;;;;11.80;3.85;;;7.50;99.90;;;;;;10057332;29;20084;-91
2020/12/17 19:13:52;;;;;;;8.18;3.47;;;7.40;99.90;;;;;;10057749;29;20065;-91
2020/12/17 19:18:54;;;;;;;10.52;5.03;;;7.10;99.90;;;;;;10103475;29;20140;-91
2020/12/17 19:23:55;;;;;;;9.13;3.75;;;7.10;99.90;;;;;;10071989;29;20064;-91
2020/12/17 19:28:57;;;;;;;8.85;4.18;;;7.00;99.90;;;;;;10102356;29;20470;-91
2020/12/17 19:33:58;;;;;;;9.35;3.15;;;6.80;99.90;;;;;;10072819;29;20076;-91
2020/12/17 19:39:00;;;;;;;16.38;6.55;;;7.00;99.90;;;;;;10042212;29;20057;-91
2020/12/17 19:44:01;;;;;;;9.50;4.53;;;6.80;99.90;;;;;;10072618;29;20143;-91
2020/12/17 19:49:03;;;;;;;8.10;4.15;;;6.60;99.90;;;;;;10071762;29;20469;-91
2020/12/17 19:54:05;;;;;;;5.40;3.53;;;6.80;99.90;;;;;;10056385;29;20061;-91
2020/12/17 19:59:10;;;;;;;10.40;4.78;;;6.90;99.90;;;;;;10086057;29;20500;-91
2020/12/17 20:04:11;;;;;;;11.65;4.32;;;6.90;99.90;;;;;;10070015;29;20482;-91
2020/12/17 20:09:15;;;;;;;9.00;3.90;;;6.80;99.90;;;;;;10055232;29;20140;-91
2020/12/17 20:14:16;;;;;;;10.20;4.75;;;6.80;99.90;;;;;;10071030;29;20572;-90
2020/12/17 20:19:18;;;;;;;12.57;5.35;;;6.80;99.90;;;;;;10086598;29;20069;-89
2020/12/17 20:24:20;;;;;;;;;;;6.50;99.90;;;;;;10055033;29;20592;-91
2020/12/17 20:29:22;;;;;;;10.90;4.50;;;6.80;99.90;;;;;;10070683;29;20026;-91
2020/12/17 20:34:25;;;;;;;10.30;5.43;;;6.80;99.90;;;;;;10086084;29;20056;-91
2020/12/17 20:39:27;;;;;;;11.35;5.57;;;6.80;99.90;;;;;;10055412;29;20139;-91
2020/12/17 20:44:28;;;;;;;9.82;5.57;;;6.80;99.90;;;;;;10085186;29;20512;-91
2020/12/17 20:49:31;;;;;;;10.88;5.78;;;6.80;99.90;;;;;;10054804;29;20512;-91
2020/12/17 20:54:33;;;;;;;11.30;5.32;;;6.80;99.90;;;;;;10084723;29;20581;-91
2020/12/17 20:59:34;;;;;;;12.77;5.70;;;6.50;99.90;;;;;;10069909;29;20494;-92
2020/12/17 21:04:36;;;;;;;9.65;5.20;;;6.40;99.90;;;;;;10054930;29;20076;-92
2020/12/17 21:09:37;;;;;;;12.57;5.20;;;6.50;99.90;;;;;;10053362;29;20057;-91
2020/12/17 21:14:39;;;;;;;10.20;5.90;;;6.40;99.90;;;;;;10068937;29;20161;-91
2020/12/17 21:19:40;;;;;;;10.65;5.30;;;6.50;99.90;;;;;;10068528;29;20118;-91
2020/12/17 21:24:42;;;;;;;15.35;6.57;;;;;;;;;;10067142;29;20144;-91
2020/12/17 21:29:44;;;;;;;11.30;6.50;;;6.60;99.90;;;;;;10068306;29;20493;-92
2020/12/17 21:34:46;;;;;;;11.55;7.05;;;6.50;99.90;;;;;;10053861;29;20053;-92
2020/12/17 21:39:47;;;;;;;14.45;6.45;;;7.00;99.90;;;;;;10065152;29;20068;-91
2020/12/17 21:44:49;;;;;;;13.63;6.57;;;7.30;99.90;;;;;;10037593;29;20067;-91
2020/12/17 21:49:50;;;;;;;13.02;6.68;;;6.70;99.90;;;;;;10052599;29;20390;-91
2020/12/17 21:54:52;;;;;;;13.35;7.53;;;7.10;99.90;;;;;;10068370;29;20061;-91
2020/12/17 21:59:53;;;;;;;11.02;7.40;;;6.40;99.90;;;;;;10052929;29;20072;-91
2020/12/17 22:04:55;;;;;;;15.20;7.25;;;6.50;99.90;;;;;;10051705;29;20513;-91
2020/12/17 22:09:56;;;;;;;15.32;7.20;;;6.80;99.90;;;;;;10052269;29;20081;-91
2020/12/17 22:15:02;;;;;;;12.20;7.07;;;6.70;99.90;;;;;;10054246;29;20136;-91
2020/12/17 22:20:04;;;;;;;16.63;8.75;;;6.60;99.90;;;;;;10068247;29;20144;-91
2020/12/17 22:25:06;;;;;;;17.67;9.48;;;6.50;99.90;;;;;;10052433;29;20072;-93
2020/12/17 22:30:07;;;;;;;14.70;7.78;;;6.70;99.90;;;;;;10067324;29;20072;-92
2020/12/17 22:35:10;;;;;;;19.58;9.18;;;6.50;99.90;;;;;;10066818;29;20084;-91
2020/12/17 22:40:11;;;;;;;20.80;10.60;;;7.00;99.90;;;;;;10074794;29;20117;-91
2020/12/17 22:45:13;;;;;;;12.30;8.60;;;6.70;99.90;;;;;;10075139;29;20065;-91
2020/12/17 22:50:14;;;;;;;18.08;9.10;;;6.50;99.90;;;;;;10059113;29;20143;-91
2020/12/17 22:55:16;;;;;;;16.33;7.93;;;6.30;99.90;;;;;;10058586;29;20549;-92
2020/12/17 23:00:17;;;;;;;12.45;8.30;;;6.70;99.90;;;;;;10035617;29;20141;-91
2020/12/17 23:05:19;;;;;;;11.00;7.43;;;6.40;99.90;;;;;;10005406;29;20061;-91
2020/12/17 23:10:20;;;;;;;22.95;11.45;;;5.80;99.90;;;;;;10005201;29;20095;-91
2020/12/17 23:15:22;;;;;;;22.90;10.32;;;6.30;99.90;;;;;;10035063;29;20508;-94
2020/12/17 23:20:27;;;;;;;16.27;9.73;;;6.40;99.90;;;;;;10035100;29;20069;-91
2020/12/17 23:25:28;;;;;;;17.17;10.70;;;6.50;99.90;;;;;;10034630;29;20064;-92
2020/12/17 23:30:30;;;;;;;13.32;9.60;;;6.50;99.90;;;;;;10033625;29;20092;-91
2020/12/17 23:35:32;;;;;;;21.73;11.82;;;5.90;99.90;;;;;;10034508;29;20569;-91
2020/12/17 23:40:33;;;;;;;19.73;10.60;;;6.10;99.90;;;;;;10034438;29;20144;-91
2020/12/17 23:45:35;;;;;;;27.58;14.38;;;6.30;99.90;;;;;;10034115;29;20152;-91
2020/12/17 23:50:36;;;;;;;19.38;12.43;;;6.00;99.90;;;;;;10033111;29;20053;-91
2020/12/17 23:55:40;;;;;;;20.45;12.43;;;6.30;99.90;;;;;;10033593;29;20089;-91
